San Lorenzo de El Escorial, Spain
Current Conditions -  °F | °C
As of 4:30 PM on Sunday 21 Dec 2014 (Local Time) from LEVS Reporting Station
Clear Clear  
Wind Chill: 13°   Ceiling: Unl
Heat Index: 13°   Visibility: 6mi
Dew Point:   Wind: 2mph
Humidity: 54%   Direction: NA
Pressure: 30.45"   Gusts: NA
Location:  40.59°N, 4.15°W
Report Text: LEVS 211530Z VRB02KT CAVOK 13/04 Q1031
Loading
Personal Weather Stations






























Interactive Weather Map New forecast layout! Learn more

10-Day Weather Forecast

Advertisements
Track Severe Weather on mobile